Aviation Digital Data Service (ADDS)

Output produced by METARs form (1404 UTC 19 January 2019)
found at http://www.aviationweather.gov/metar/data/
 
METAR text: UUWW 191330Z 22005MPS 9000 -SHSN SCT014 BKN036CB M05/M07 Q1008 R24/420250 TEMPO 1200 SHSN BKN015CB
Conditions at: UUWW (MOSCOW/VNUKOVO , RU) observed 1330 UTC 19 January 2019
Temperature: -5.0°C (23°F)
Dewpoint: -7.0°C (19°F) [RH = 86%]
Pressure (altimeter): 29.76 inches Hg (1008.0 mb)
Winds: from the SW (220 degrees) at 12 MPH (10 knots; 5.1 m/s)
Visibility: 6 miles ( 9 km)
Ceiling: 3600 feet AGL
Clouds: scattered clouds at 1400 feet AGL
broken clouds at 3600 feet AGL
Weather: -SHSN  (light snow showers)

METAR text: UUWW 191300Z 23005MPS 3400 -SHSN SCT014 BKN036CB M05/M07 Q1008 R24/420250 TEMPO 28010MPS 0600 +SHSN BLSN BKN015CB
Conditions at: UUWW (MOSCOW/VNUKOVO , RU) observed 1300 UTC 19 January 2019
Temperature: -5.0°C (23°F)
Dewpoint: -7.0°C (19°F) [RH = 86%]
Pressure (altimeter): 29.76 inches Hg (1008.0 mb)
Winds: from the SW (230 degrees) at 12 MPH (10 knots; 5.1 m/s)
Visibility: 2.11 miles (3.40 km)
Ceiling: 3600 feet AGL
Clouds: scattered clouds at 1400 feet AGL
broken clouds at 3600 feet AGL
Weather: -SHSN  (light snow showers)

METAR text: UUWW 191230Z 22005MPS 6000 -SHSN SCT014 BKN029CB M05/M07 Q1008 R24/410260 TEMPO 28010MPS 0600 +SHSN BLSN BKN015CB
Conditions at: UUWW (MOSCOW/VNUKOVO , RU) observed 1230 UTC 19 January 2019
Temperature: -5.0°C (23°F)
Dewpoint: -7.0°C (19°F) [RH = 86%]
Pressure (altimeter): 29.76 inches Hg (1008.0 mb)
Winds: from the SW (220 degrees) at 12 MPH (10 knots; 5.1 m/s)
Visibility: 4 miles ( 6 km)
Ceiling: 2900 feet AGL
Clouds: scattered clouds at 1400 feet AGL
broken clouds at 2900 feet AGL
Weather: -SHSN  (light snow showers)

METAR text: UUWW 191200Z 22005MPS 7000 -SHSN BKN013 BKN030CB M05/M08 Q1007 R24/410260 TEMPO 28010MPS 0600 +SHSN BLSN BKN015CB
Conditions at: UUWW (MOSCOW/VNUKOVO , RU) observed 1200 UTC 19 January 2019
Temperature: -5.0°C (23°F)
Dewpoint: -8.0°C (18°F) [RH = 79%]
Pressure (altimeter): 29.73 inches Hg (1007.0 mb)
Winds: from the SW (220 degrees) at 12 MPH (10 knots; 5.1 m/s)
Visibility: 4 miles ( 7 km)
Ceiling: 1300 feet AGL
Clouds: broken clouds at 1300 feet AGL
broken clouds at 3000 feet AGL
Weather: -SHSN  (light snow showers)

METAR text: UUWW 191130Z 22005MPS 9999 -SN BKN013 M05/M08 Q1007 R24/410260 TEMPO 28010MPS 0600 +SHSN BLSN BKN015CB
Conditions at: UUWW (MOSCOW/VNUKOVO , RU) observed 1130 UTC 19 January 2019
Temperature: -5.0°C (23°F)
Dewpoint: -8.0°C (18°F) [RH = 79%]
Pressure (altimeter): 29.73 inches Hg (1007.0 mb)
Winds: from the SW (220 degrees) at 12 MPH (10 knots; 5.1 m/s)
Visibility: 6 or more miles (10+ km)
Ceiling: 1300 feet AGL
Clouds: broken clouds at 1300 feet AGL
Weather: -SN  (light snow)

METAR text: UUWW 191100Z 22005MPS 9999 BKN013 M05/M08 Q1007 R24/410260 TEMPO 28010MPS 0600 +SHSN BLSN BKN015CB
Conditions at: UUWW (MOSCOW/VNUKOVO , RU) observed 1100 UTC 19 January 2019
Temperature: -5.0°C (23°F)
Dewpoint: -8.0°C (18°F) [RH = 79%]
Pressure (altimeter): 29.73 inches Hg (1007.0 mb)
Winds: from the SW (220 degrees) at 12 MPH (10 knots; 5.1 m/s)
Visibility: 6 or more miles (10+ km)
Ceiling: 1300 feet AGL
Clouds: broken clouds at 1300 feet AGL
Weather: no significant weather observed at this time

METAR text: UUWW 191030Z 22005MPS 9999 BKN012 M05/M08 Q1007 R24/410260 NOSIG
Conditions at: UUWW (MOSCOW/VNUKOVO , RU) observed 1030 UTC 19 January 2019
Temperature: -5.0°C (23°F)
Dewpoint: -8.0°C (18°F) [RH = 79%]
Pressure (altimeter): 29.73 inches Hg (1007.0 mb)
Winds: from the SW (220 degrees) at 12 MPH (10 knots; 5.1 m/s)
Visibility: 6 or more miles (10+ km)
Ceiling: 1200 feet AGL
Clouds: broken clouds at 1200 feet AGL
Weather: no significant weather observed at this time

METAR text: UUWW 191000Z 22005MPS 9999 BKN012 M05/M08 Q1007 R19/410345 NOSIG
Conditions at: UUWW (MOSCOW/VNUKOVO , RU) observed 1000 UTC 19 January 2019
Temperature: -5.0°C (23°F)
Dewpoint: -8.0°C (18°F) [RH = 79%]
Pressure (altimeter): 29.73 inches Hg (1007.0 mb)
Winds: from the SW (220 degrees) at 12 MPH (10 knots; 5.1 m/s)
Visibility: 6 or more miles (10+ km)
Ceiling: 1200 feet AGL
Clouds: broken clouds at 1200 feet AGL
Weather: no significant weather observed at this time

METAR text: UUWW 190930Z 22005MPS 9000 -SHSN BKN012 BKN049CB M06/M09 Q1007 R19/410345 NOSIG
Conditions at: UUWW (MOSCOW/VNUKOVO , RU) observed 0930 UTC 19 January 2019
Temperature: -6.0°C (21°F)
Dewpoint: -9.0°C (16°F) [RH = 79%]
Pressure (altimeter): 29.73 inches Hg (1007.0 mb)
Winds: from the SW (220 degrees) at 12 MPH (10 knots; 5.1 m/s)
Visibility: 6 miles ( 9 km)
Ceiling: 1200 feet AGL
Clouds: broken clouds at 1200 feet AGL
broken clouds at 4900 feet AGL
Weather: -SHSN  (light snow showers)

METAR text: UUWW 190900Z 23006MPS 9999 BKN011 M06/M09 Q1007 R19/410345 NOSIG
Conditions at: UUWW (MOSCOW/VNUKOVO , RU) observed 0900 UTC 19 January 2019
Temperature: -6.0°C (21°F)
Dewpoint: -9.0°C (16°F) [RH = 79%]
Pressure (altimeter): 29.73 inches Hg (1007.0 mb)
Winds: from the SW (230 degrees) at 14 MPH (12 knots; 6.2 m/s)
Visibility: 6 or more miles (10+ km)
Ceiling: 1100 feet AGL
Clouds: broken clouds at 1100 feet AGL
Weather: no significant weather observed at this time

METAR text: UUWW 190830Z 24008MPS 9999 BKN011 M06/M09 Q1007 R24/410355 NOSIG
Conditions at: UUWW (MOSCOW/VNUKOVO , RU) observed 0830 UTC 19 January 2019
Temperature: -6.0°C (21°F)
Dewpoint: -9.0°C (16°F) [RH = 79%]
Pressure (altimeter): 29.73 inches Hg (1007.0 mb)
Winds: from the WSW (240 degrees) at 18 MPH (16 knots; 8.2 m/s)
Visibility: 6 or more miles (10+ km)
Ceiling: 1100 feet AGL
Clouds: broken clouds at 1100 feet AGL
Weather: no significant weather observed at this time

METAR text: UUWW 190800Z 24009MPS 9999 BKN011 M06/M09 Q1007 R24/410355 NOSIG
Conditions at: UUWW (MOSCOW/VNUKOVO , RU) observed 0800 UTC 19 January 2019
Temperature: -6.0°C (21°F)
Dewpoint: -9.0°C (16°F) [RH = 79%]
Pressure (altimeter): 29.73 inches Hg (1007.0 mb)
Winds: from the WSW (240 degrees) at 20 MPH (17 knots; 8.7 m/s)
Visibility: 6 or more miles (10+ km)
Ceiling: 1100 feet AGL
Clouds: broken clouds at 1100 feet AGL
Weather: no significant weather observed at this time

METAR text: UUWW 190730Z 23006MPS 9999 SCT012 M06/M09 Q1007 R24/410355 NOSIG
Conditions at: UUWW (MOSCOW/VNUKOVO , RU) observed 0730 UTC 19 January 2019
Temperature: -6.0°C (21°F)
Dewpoint: -9.0°C (16°F) [RH = 79%]
Pressure (altimeter): 29.73 inches Hg (1007.0 mb)
Winds: from the SW (230 degrees) at 14 MPH (12 knots; 6.2 m/s)
Visibility: 6 or more miles (10+ km)
Ceiling: at least 12,000 feet AGL
Clouds: scattered clouds at 1200 feet AGL
Weather: no significant weather observed at this time

METAR text: UUWW 190700Z 22005MPS 9999 SCT012 M07/M09 Q1007 R24/410355 NOSIG
Conditions at: UUWW (MOSCOW/VNUKOVO , RU) observed 0700 UTC 19 January 2019
Temperature: -7.0°C (19°F)
Dewpoint: -9.0°C (16°F) [RH = 86%]
Pressure (altimeter): 29.73 inches Hg (1007.0 mb)
Winds: from the SW (220 degrees) at 12 MPH (10 knots; 5.1 m/s)
Visibility: 6 or more miles (10+ km)
Ceiling: at least 12,000 feet AGL
Clouds: scattered clouds at 1200 feet AGL
Weather: no significant weather observed at this time

METAR text: UUWW 190630Z 22004MPS CAVOK M08/M10 Q1007 R24/410355 NOSIG
Conditions at: UUWW (MOSCOW/VNUKOVO , RU) observed 0630 UTC 19 January 2019
Temperature: -8.0°C (18°F)
Dewpoint: -10.0°C (14°F) [RH = 85%]
Pressure (altimeter): 29.73 inches Hg (1007.0 mb)
Winds: from the SW (220 degrees) at 9 MPH (8 knots; 4.1 m/s)
Visibility: 6 or more miles (10+ km)
Ceiling: ceiling and visibility are OK
Clouds: unknown
Weather: no significant weather observed at this time

METAR text: UUWW 190600Z 22005MPS CAVOK M08/M10 Q1007 R24/410355 NOSIG
Conditions at: UUWW (MOSCOW/VNUKOVO , RU) observed 0600 UTC 19 January 2019
Temperature: -8.0°C (18°F)
Dewpoint: -10.0°C (14°F) [RH = 85%]
Pressure (altimeter): 29.73 inches Hg (1007.0 mb)
Winds: from the SW (220 degrees) at 12 MPH (10 knots; 5.1 m/s)
Visibility: 6 or more miles (10+ km)
Ceiling: ceiling and visibility are OK
Clouds: unknown
Weather: no significant weather observed at this time

METAR text: UUWW 190530Z 21004MPS CAVOK M08/M10 Q1006 R24/410355 NOSIG
Conditions at: UUWW (MOSCOW/VNUKOVO , RU) observed 0530 UTC 19 January 2019
Temperature: -8.0°C (18°F)
Dewpoint: -10.0°C (14°F) [RH = 85%]
Pressure (altimeter): 29.70 inches Hg (1006.0 mb)
Winds: from the SSW (210 degrees) at 9 MPH (8 knots; 4.1 m/s)
Visibility: 6 or more miles (10+ km)
Ceiling: ceiling and visibility are OK
Clouds: unknown
Weather: no significant weather observed at this time

METAR text: UUWW 190500Z 24004MPS 9999 SCT012 M07/M10 Q1006 R24/410355 NOSIG
Conditions at: UUWW (MOSCOW/VNUKOVO , RU) observed 0500 UTC 19 January 2019
Temperature: -7.0°C (19°F)
Dewpoint: -10.0°C (14°F) [RH = 79%]
Pressure (altimeter): 29.70 inches Hg (1006.0 mb)
Winds: from the WSW (240 degrees) at 9 MPH (8 knots; 4.1 m/s)
Visibility: 6 or more miles (10+ km)
Ceiling: at least 12,000 feet AGL
Clouds: scattered clouds at 1200 feet AGL
Weather: no significant weather observed at this time

METAR text: UUWW 190430Z 24005MPS 9999 BKN013 M06/M09 Q1006 WS R24 R24/410355 NOSIG
Conditions at: UUWW (MOSCOW/VNUKOVO , RU) observed 0430 UTC 19 January 2019
Temperature: -6.0°C (21°F)
Dewpoint: -9.0°C (16°F) [RH = 79%]
Pressure (altimeter): 29.70 inches Hg (1006.0 mb)
Winds: from the WSW (240 degrees) at 12 MPH (10 knots; 5.1 m/s)
Visibility: 6 or more miles (10+ km)
Ceiling: 1300 feet AGL
Clouds: broken clouds at 1300 feet AGL
Weather: no significant weather observed at this time

METAR text: UUWW 190400Z 24005MPS 9999 BKN014 M06/M09 Q1006 WS R24 R24/410355 NOSIG
Conditions at: UUWW (MOSCOW/VNUKOVO , RU) observed 0400 UTC 19 January 2019
Temperature: -6.0°C (21°F)
Dewpoint: -9.0°C (16°F) [RH = 79%]
Pressure (altimeter): 29.70 inches Hg (1006.0 mb)
Winds: from the WSW (240 degrees) at 12 MPH (10 knots; 5.1 m/s)
Visibility: 6 or more miles (10+ km)
Ceiling: 1400 feet AGL
Clouds: broken clouds at 1400 feet AGL
Weather: no significant weather observed at this time

METAR text: UUWW 190330Z 25003MPS 9999 BKN015 M06/M09 Q1006 R19/410345 NOSIG
Conditions at: UUWW (MOSCOW/VNUKOVO , RU) observed 0330 UTC 19 January 2019
Temperature: -6.0°C (21°F)
Dewpoint: -9.0°C (16°F) [RH = 79%]
Pressure (altimeter): 29.70 inches Hg (1006.0 mb)
Winds: from the WSW (250 degrees) at 7 MPH (6 knots; 3.1 m/s)
Visibility: 6 or more miles (10+ km)
Ceiling: 1500 feet AGL
Clouds: broken clouds at 1500 feet AGL
Weather: no significant weather observed at this time

METAR text: UUWW 190300Z 26005MPS 9999 BKN015 M06/M09 Q1005 WS R24 R24/420550 NOSIG
Conditions at: UUWW (MOSCOW/VNUKOVO , RU) observed 0300 UTC 19 January 2019
Temperature: -6.0°C (21°F)
Dewpoint: -9.0°C (16°F) [RH = 79%]
Pressure (altimeter): 29.68 inches Hg (1005.0 mb)
Winds: from the W (260 degrees) at 12 MPH (10 knots; 5.1 m/s)
Visibility: 6 or more miles (10+ km)
Ceiling: 1500 feet AGL
Clouds: broken clouds at 1500 feet AGL
Weather: no significant weather observed at this time

METAR text: UUWW 190230Z 27005MPS 9999 BKN016 M05/M09 Q1005 WS R24 R24/420550 NOSIG
Conditions at: UUWW (MOSCOW/VNUKOVO , RU) observed 0230 UTC 19 January 2019
Temperature: -5.0°C (23°F)
Dewpoint: -9.0°C (16°F) [RH = 73%]
Pressure (altimeter): 29.68 inches Hg (1005.0 mb)
Winds: from the W (270 degrees) at 12 MPH (10 knots; 5.1 m/s)
Visibility: 6 or more miles (10+ km)
Ceiling: 1600 feet AGL
Clouds: broken clouds at 1600 feet AGL
Weather: no significant weather observed at this time

METAR text: UUWW 190200Z 29007MPS 9999 BKN016 M05/M09 Q1005 R24/420550 NOSIG
Conditions at: UUWW (MOSCOW/VNUKOVO , RU) observed 0200 UTC 19 January 2019
Temperature: -5.0°C (23°F)
Dewpoint: -9.0°C (16°F) [RH = 73%]
Pressure (altimeter): 29.68 inches Hg (1005.0 mb)
Winds: from the WNW (290 degrees) at 16 MPH (14 knots; 7.2 m/s)
Visibility: 6 or more miles (10+ km)
Ceiling: 1600 feet AGL
Clouds: broken clouds at 1600 feet AGL
Weather: no significant weather observed at this time

METAR text: UUWW 190130Z 28006MPS 9999 BKN017 M05/M09 Q1004 WS R24 R24/450545 NOSIG
Conditions at: UUWW (MOSCOW/VNUKOVO , RU) observed 0130 UTC 19 January 2019
Temperature: -5.0°C (23°F)
Dewpoint: -9.0°C (16°F) [RH = 73%]
Pressure (altimeter): 29.65 inches Hg (1004.0 mb)
Winds: from the W (280 degrees) at 14 MPH (12 knots; 6.2 m/s)
Visibility: 6 or more miles (10+ km)
Ceiling: 1700 feet AGL
Clouds: broken clouds at 1700 feet AGL
Weather: no significant weather observed at this time

METAR text: UUWW 190100Z 29007MPS 9999 BKN020 M05/M08 Q1004 WS R24 R24/450545 NOSIG
Conditions at: UUWW (MOSCOW/VNUKOVO , RU) observed 0100 UTC 19 January 2019
Temperature: -5.0°C (23°F)
Dewpoint: -8.0°C (18°F) [RH = 79%]
Pressure (altimeter): 29.65 inches Hg (1004.0 mb)
Winds: from the WNW (290 degrees) at 16 MPH (14 knots; 7.2 m/s)
Visibility: 6 or more miles (10+ km)
Ceiling: 2000 feet AGL
Clouds: broken clouds at 2000 feet AGL
Weather: no significant weather observed at this time

METAR text: UUWW 190030Z 30007MPS 9999 BKN015 M04/M07 Q1003 R24/450545 NOSIG
Conditions at: UUWW (MOSCOW/VNUKOVO , RU) observed 0030 UTC 19 January 2019
Temperature: -4.0°C (25°F)
Dewpoint: -7.0°C (19°F) [RH = 80%]
Pressure (altimeter): 29.62 inches Hg (1003.0 mb)
Winds: from the WNW (300 degrees) at 16 MPH (14 knots; 7.2 m/s)
Visibility: 6 or more miles (10+ km)
Ceiling: 1500 feet AGL
Clouds: broken clouds at 1500 feet AGL
Weather: no significant weather observed at this time

METAR text: UUWW 190000Z 31007MPS 9999 -SN BKN013 BKN033 M04/M07 Q1003 R01/450540 NOSIG
Conditions at: UUWW (MOSCOW/VNUKOVO , RU) observed 0000 UTC 19 January 2019
Temperature: -4.0°C (25°F)
Dewpoint: -7.0°C (19°F) [RH = 80%]
Pressure (altimeter): 29.62 inches Hg (1003.0 mb)
Winds: from the NW (310 degrees) at 16 MPH (14 knots; 7.2 m/s)
Visibility: 6 or more miles (10+ km)
Ceiling: 1300 feet AGL
Clouds: broken clouds at 1300 feet AGL
broken clouds at 3300 feet AGL
Weather: -SN  (light snow)

METAR text: UUWW 182330Z 33007G13MPS 9999 -SN BKN013 BKN040 M04/M07 Q1002 R01/450540 NOSIG
Conditions at: UUWW (MOSCOW/VNUKOVO , RU) observed 2330 UTC 18 January 2019
Temperature: -4.0°C (25°F)
Dewpoint: -7.0°C (19°F) [RH = 80%]
Pressure (altimeter): 29.59 inches Hg (1002.0 mb)
Winds: from the NNW (330 degrees) at 16 MPH (14 knots; 7.2 m/s)
gusting to 29 MPH (25 knots; 12.9 m/s)
Visibility: 6 or more miles (10+ km)
Ceiling: 1300 feet AGL
Clouds: broken clouds at 1300 feet AGL
broken clouds at 4000 feet AGL
Weather: -SN  (light snow)

METAR text: UUWW 182300Z 32009G14MPS 9999 BKN011 BKN033 M03/M06 Q1000 WS R01 R01/450540 NOSIG
Conditions at: UUWW (MOSCOW/VNUKOVO , RU) observed 2300 UTC 18 January 2019
Temperature: -3.0°C (27°F)
Dewpoint: -6.0°C (21°F) [RH = 80%]
Pressure (altimeter): 29.53 inches Hg (1000.0 mb)
Winds: from the NW (320 degrees) at 20 MPH (17 knots; 8.7 m/s)
gusting to 31 MPH (27 knots; 13.9 m/s)
Visibility: 6 or more miles (10+ km)
Ceiling: 1100 feet AGL
Clouds: broken clouds at 1100 feet AGL
broken clouds at 3300 feet AGL
Weather: no significant weather observed at this time

METAR text: UUWW 182230Z 31010MPS 4300 -SHSN BLSN BKN007 BKN033CB M03/M05 Q0999 WS R24 R24/590532 TEMPO 0200 +SHSN BLSN BKN010CB
Conditions at: UUWW (MOSCOW/VNUKOVO , RU) observed 2230 UTC 18 January 2019
Temperature: -3.0°C (27°F)
Dewpoint: -5.0°C (23°F) [RH = 86%]
Pressure (altimeter): 29.50 inches Hg (999.0 mb)
Winds: from the NW (310 degrees) at 22 MPH (19 knots; 9.8 m/s)
Visibility: 2.67 miles (4.30 km)
Ceiling: 700 feet AGL
Clouds: broken clouds at 700 feet AGL
broken clouds at 3300 feet AGL
Weather: -SHSN BLSN  (light snow showers, blowing snow)

METAR text: UUWW 182200Z 23007G13MPS 200V310 5000 -SHSN BKN001 BKN033CB M00/M03 Q0998 WS R24 R24/520342 TEMPO 0500 +SHSN BKN010CB RMK QBB050
Conditions at: UUWW (MOSCOW/VNUKOVO , RU) observed 2200 UTC 18 January 2019
Temperature: 0.0°C (32°F)
Dewpoint: -3.0°C (27°F) [RH = 80%]
Pressure (altimeter): 29.47 inches Hg (998.0 mb)
Winds: from the SW (230 degrees) at 16 MPH (14 knots; 7.2 m/s)
gusting to 29 MPH (25 knots; 12.9 m/s)
Visibility: 3 miles ( 5 km)
Ceiling: 100 feet AGL
Clouds: broken clouds at 100 feet AGL
broken clouds at 3300 feet AGL
Weather: -SHSN  (light snow showers)

METAR text: UUWW 182130Z 21007MPS 9999 BKN012 BKN033 01/M01 Q0997 WS R24 R24/520342 TEMPO 0500 +SHSN BKN010CB
Conditions at: UUWW (MOSCOW/VNUKOVO , RU) observed 2130 UTC 18 January 2019
Temperature: 1.0°C (34°F)
Dewpoint: -1.0°C (30°F) [RH = 86%]
Pressure (altimeter): 29.44 inches Hg (997.0 mb)
Winds: from the SSW (210 degrees) at 16 MPH (14 knots; 7.2 m/s)
Visibility: 6 or more miles (10+ km)
Ceiling: 1200 feet AGL
Clouds: broken clouds at 1200 feet AGL
broken clouds at 3300 feet AGL
Weather: no significant weather observed at this time

METAR text: UUWW 182100Z 21006MPS 9999 BKN012 BKN033 01/M01 Q0997 WS R24 R24/520342 NOSIG
Conditions at: UUWW (MOSCOW/VNUKOVO , RU) observed 2100 UTC 18 January 2019
Temperature: 1.0°C (34°F)
Dewpoint: -1.0°C (30°F) [RH = 86%]
Pressure (altimeter): 29.44 inches Hg (997.0 mb)
Winds: from the SSW (210 degrees) at 14 MPH (12 knots; 6.2 m/s)
Visibility: 6 or more miles (10+ km)
Ceiling: 1200 feet AGL
Clouds: broken clouds at 1200 feet AGL
broken clouds at 3300 feet AGL
Weather: no significant weather observed at this time

METAR text: UUWW 182030Z 21006MPS 9999 BKN008 BKN033 01/M01 Q0997 WS R24 R24/520342 NOSIG
Conditions at: UUWW (MOSCOW/VNUKOVO , RU) observed 2030 UTC 18 January 2019
Temperature: 1.0°C (34°F)
Dewpoint: -1.0°C (30°F) [RH = 86%]
Pressure (altimeter): 29.44 inches Hg (997.0 mb)
Winds: from the SSW (210 degrees) at 14 MPH (12 knots; 6.2 m/s)
Visibility: 6 or more miles (10+ km)
Ceiling: 800 feet AGL
Clouds: broken clouds at 800 feet AGL
broken clouds at 3300 feet AGL
Weather: no significant weather observed at this time

METAR text: UUWW 182000Z 19007MPS 9999 BKN011 01/M01 Q0997 R19/520342 NOSIG
Conditions at: UUWW (MOSCOW/VNUKOVO , RU) observed 2000 UTC 18 January 2019
Temperature: 1.0°C (34°F)
Dewpoint: -1.0°C (30°F) [RH = 86%]
Pressure (altimeter): 29.44 inches Hg (997.0 mb)
Winds: from the S (190 degrees) at 16 MPH (14 knots; 7.2 m/s)
Visibility: 6 or more miles (10+ km)
Ceiling: 1100 feet AGL
Clouds: broken clouds at 1100 feet AGL
Weather: no significant weather observed at this time

METAR text: UUWW 181930Z 19007MPS 9999 -SN BKN009 01/M01 Q0997 R19/520342 NOSIG
Conditions at: UUWW (MOSCOW/VNUKOVO , RU) observed 1930 UTC 18 January 2019
Temperature: 1.0°C (34°F)
Dewpoint: -1.0°C (30°F) [RH = 86%]
Pressure (altimeter): 29.44 inches Hg (997.0 mb)
Winds: from the S (190 degrees) at 16 MPH (14 knots; 7.2 m/s)
Visibility: 6 or more miles (10+ km)
Ceiling: 900 feet AGL
Clouds: broken clouds at 900 feet AGL
Weather: -SN  (light snow)

METAR text: UUWW 181900Z 19007MPS 9999 -SN BKN007 00/M01 Q0997 R19/520342 NOSIG
Conditions at: UUWW (MOSCOW/VNUKOVO , RU) observed 1900 UTC 18 January 2019
Temperature: 0.0°C (32°F)
Dewpoint: -1.0°C (30°F) [RH = 93%]
Pressure (altimeter): 29.44 inches Hg (997.0 mb)
Winds: from the S (190 degrees) at 16 MPH (14 knots; 7.2 m/s)
Visibility: 6 or more miles (10+ km)
Ceiling: 700 feet AGL
Clouds: broken clouds at 700 feet AGL
Weather: -SN  (light snow)

METAR text: UUWW 181830Z 21006G11MPS 9000 -SN BKN008 BKN020 00/M01 Q0997 R24/550340 NOSIG
Conditions at: UUWW (MOSCOW/VNUKOVO , RU) observed 1830 UTC 18 January 2019
Temperature: 0.0°C (32°F)
Dewpoint: -1.0°C (30°F) [RH = 93%]
Pressure (altimeter): 29.44 inches Hg (997.0 mb)
Winds: from the SSW (210 degrees) at 14 MPH (12 knots; 6.2 m/s)
gusting to 24 MPH (21 knots; 10.8 m/s)
Visibility: 6 miles ( 9 km)
Ceiling: 800 feet AGL
Clouds: broken clouds at 800 feet AGL
broken clouds at 2000 feet AGL
Weather: -SN  (light snow)

METAR text: UUWW 181800Z 20006MPS 5000 -SHSN BKN006 BKN020CB 00/M01 Q0997 R24/550340 TEMPO 1100 SHSN BKN012CB
Conditions at: UUWW (MOSCOW/VNUKOVO , RU) observed 1800 UTC 18 January 2019
Temperature: 0.0°C (32°F)
Dewpoint: -1.0°C (30°F) [RH = 93%]
Pressure (altimeter): 29.44 inches Hg (997.0 mb)
Winds: from the SSW (200 degrees) at 14 MPH (12 knots; 6.2 m/s)
Visibility: 3 miles ( 5 km)
Ceiling: 600 feet AGL
Clouds: broken clouds at 600 feet AGL
broken clouds at 2000 feet AGL
Weather: -SHSN  (light snow showers)

METAR text: UUWW 181730Z 19005MPS 3500 -SHSN BKN005 BKN020CB 00/M01 Q0997 R24/550340 TEMPO 0800 +SHSN BKN012CB
Conditions at: UUWW (MOSCOW/VNUKOVO , RU) observed 1730 UTC 18 January 2019
Temperature: 0.0°C (32°F)
Dewpoint: -1.0°C (30°F) [RH = 93%]
Pressure (altimeter): 29.44 inches Hg (997.0 mb)
Winds: from the S (190 degrees) at 12 MPH (10 knots; 5.1 m/s)
Visibility: 2.17 miles (3.49 km)
Ceiling: 500 feet AGL
Clouds: broken clouds at 500 feet AGL
broken clouds at 2000 feet AGL
Weather: -SHSN  (light snow showers)

METAR text: UUWW 181700Z 20005MPS 1000 0900SW R24/P2000D +SHSN BKN003 BKN020CB 00/M01 Q0997 WS R24 R24/550340 TEMPO 0800 +SHSN BKN012CB
Conditions at: UUWW (MOSCOW/VNUKOVO , RU) observed 1700 UTC 18 January 2019
Temperature: 0.0°C (32°F)
Dewpoint: -1.0°C (30°F) [RH = 93%]
Pressure (altimeter): 29.44 inches Hg (997.0 mb)
Winds: from the SSW (200 degrees) at 12 MPH (10 knots; 5.1 m/s)
Visibility: 0.62 miles (1.00 km)
Ceiling: 300 feet AGL
Clouds: broken clouds at 300 feet AGL
broken clouds at 2000 feet AGL
Weather: +SHSN  (heavy snow showers)

METAR text: UUWW 181630Z 16006MPS 3000 -SN OVC005 00/M01 Q0997 R19/550340 TEMPO 0800 +SHSN BKN012CB
Conditions at: UUWW (MOSCOW/VNUKOVO , RU) observed 1630 UTC 18 January 2019
Temperature: 0.0°C (32°F)
Dewpoint: -1.0°C (30°F) [RH = 93%]
Pressure (altimeter): 29.44 inches Hg (997.0 mb)
Winds: from the SSE (160 degrees) at 14 MPH (12 knots; 6.2 m/s)
Visibility: 1.86 miles (2.99 km)
Ceiling: 500 feet AGL
Clouds: overcast cloud deck at 500 feet AGL
Weather: -SN  (light snow)

METAR text: UUWW 181600Z 16006MPS 2600 -SN OVC004 00/M01 Q0998 R19/550340 TEMPO 1100 SHSN BKN012CB
Conditions at: UUWW (MOSCOW/VNUKOVO , RU) observed 1600 UTC 18 January 2019
Temperature: 0.0°C (32°F)
Dewpoint: -1.0°C (30°F) [RH = 93%]
Pressure (altimeter): 29.47 inches Hg (998.0 mb)
Winds: from the SSE (160 degrees) at 14 MPH (12 knots; 6.2 m/s)
Visibility: 1.62 miles (2.61 km)
Ceiling: 400 feet AGL
Clouds: overcast cloud deck at 400 feet AGL
Weather: -SN  (light snow)

METAR text: UUWW 181530Z 18004MPS 2200 -SN OVC006 01/M01 Q0998 R24/190042 TEMPO 1100 SHSN BKN012CB
Conditions at: UUWW (MOSCOW/VNUKOVO , RU) observed 1530 UTC 18 January 2019
Temperature: 1.0°C (34°F)
Dewpoint: -1.0°C (30°F) [RH = 86%]
Pressure (altimeter): 29.47 inches Hg (998.0 mb)
Winds: from the S (180 degrees) at 9 MPH (8 knots; 4.1 m/s)
Visibility: 1.37 miles (2.20 km)
Ceiling: 600 feet AGL
Clouds: overcast cloud deck at 600 feet AGL
Weather: -SN  (light snow)

METAR text: UUWW 181500Z 18004MPS 8000 -SN BKN009 01/M01 Q0998 R24/190042 NOSIG
Conditions at: UUWW (MOSCOW/VNUKOVO , RU) observed 1500 UTC 18 January 2019
Temperature: 1.0°C (34°F)
Dewpoint: -1.0°C (30°F) [RH = 86%]
Pressure (altimeter): 29.47 inches Hg (998.0 mb)
Winds: from the S (180 degrees) at 9 MPH (8 knots; 4.1 m/s)
Visibility: 5 miles ( 8 km)
Ceiling: 900 feet AGL
Clouds: broken clouds at 900 feet AGL
Weather: -SN  (light snow)

METAR text: UUWW 181430Z 18004MPS 9999 -SN BKN010 01/M02 Q0999 R24/190045 NOSIG
Conditions at: UUWW (MOSCOW/VNUKOVO , RU) observed 1430 UTC 18 January 2019
Temperature: 1.0°C (34°F)
Dewpoint: -2.0°C (28°F) [RH = 80%]
Pressure (altimeter): 29.50 inches Hg (999.0 mb)
Winds: from the S (180 degrees) at 9 MPH (8 knots; 4.1 m/s)
Visibility: 6 or more miles (10+ km)
Ceiling: 1000 feet AGL
Clouds: broken clouds at 1000 feet AGL
Weather: -SN  (light snow)

METAR text: UUWW 181400Z 19004MPS 9999 -SN BKN019 01/M02 Q0999 R24/190045 NOSIG
Conditions at: UUWW (MOSCOW/VNUKOVO , RU) observed 1400 UTC 18 January 2019
Temperature: 1.0°C (34°F)
Dewpoint: -2.0°C (28°F) [RH = 80%]
Pressure (altimeter): 29.50 inches Hg (999.0 mb)
Winds: from the S (190 degrees) at 9 MPH (8 knots; 4.1 m/s)
Visibility: 6 or more miles (10+ km)
Ceiling: 1900 feet AGL
Clouds: broken clouds at 1900 feet AGL
Weather: -SN  (light snow)

METAR text: UUWW 181330Z 20005MPS 9999 BKN021 01/M02 Q1000 R24/190045 NOSIG
Conditions at: UUWW (MOSCOW/VNUKOVO , RU) observed 1330 UTC 18 January 2019
Temperature: 1.0°C (34°F)
Dewpoint: -2.0°C (28°F) [RH = 80%]
Pressure (altimeter): 29.53 inches Hg (1000.0 mb)
Winds: from the SSW (200 degrees) at 12 MPH (10 knots; 5.1 m/s)
Visibility: 6 or more miles (10+ km)
Ceiling: 2100 feet AGL
Clouds: broken clouds at 2100 feet AGL
Weather: no significant weather observed at this time

METAR text: UUWW 181300Z 20005G10MPS 9999 BKN021 02/M02 Q0999 R24/190045 NOSIG
Conditions at: UUWW (MOSCOW/VNUKOVO , RU) observed 1300 UTC 18 January 2019
Temperature: 2.0°C (36°F)
Dewpoint: -2.0°C (28°F) [RH = 75%]
Pressure (altimeter): 29.50 inches Hg (999.0 mb)
Winds: from the SSW (200 degrees) at 12 MPH (10 knots; 5.1 m/s)
gusting to 22 MPH (19 knots; 9.8 m/s)
Visibility: 6 or more miles (10+ km)
Ceiling: 2100 feet AGL
Clouds: broken clouds at 2100 feet AGL
Weather: no significant weather observed at this time

METAR text: UUWW 181230Z 21005MPS 9999 BKN018 02/M02 Q1000 R24/190045 NOSIG
Conditions at: UUWW (MOSCOW/VNUKOVO , RU) observed 1230 UTC 18 January 2019
Temperature: 2.0°C (36°F)
Dewpoint: -2.0°C (28°F) [RH = 75%]
Pressure (altimeter): 29.53 inches Hg (1000.0 mb)
Winds: from the SSW (210 degrees) at 12 MPH (10 knots; 5.1 m/s)
Visibility: 6 or more miles (10+ km)
Ceiling: 1800 feet AGL
Clouds: broken clouds at 1800 feet AGL
Weather: no significant weather observed at this time

METAR text: UUWW 181200Z 21005MPS 9999 BKN016 02/M02 Q1000 R24/190042 NOSIG
Conditions at: UUWW (MOSCOW/VNUKOVO , RU) observed 1200 UTC 18 January 2019
Temperature: 2.0°C (36°F)
Dewpoint: -2.0°C (28°F) [RH = 75%]
Pressure (altimeter): 29.53 inches Hg (1000.0 mb)
Winds: from the SSW (210 degrees) at 12 MPH (10 knots; 5.1 m/s)
Visibility: 6 or more miles (10+ km)
Ceiling: 1600 feet AGL
Clouds: broken clouds at 1600 feet AGL
Weather: no significant weather observed at this time

METAR text: UUWW 181130Z 20006G11MPS 9999 BKN016 02/M02 Q0999 R24/190042 NOSIG
Conditions at: UUWW (MOSCOW/VNUKOVO , RU) observed 1130 UTC 18 January 2019
Temperature: 2.0°C (36°F)
Dewpoint: -2.0°C (28°F) [RH = 75%]
Pressure (altimeter): 29.50 inches Hg (999.0 mb)
Winds: from the SSW (200 degrees) at 14 MPH (12 knots; 6.2 m/s)
gusting to 24 MPH (21 knots; 10.8 m/s)
Visibility: 6 or more miles (10+ km)
Ceiling: 1600 feet AGL
Clouds: broken clouds at 1600 feet AGL
Weather: no significant weather observed at this time

METAR text: UUWW 181100Z 21005G10MPS 9999 BKN026 02/M02 Q0999 R24/190042 NOSIG
Conditions at: UUWW (MOSCOW/VNUKOVO , RU) observed 1100 UTC 18 January 2019
Temperature: 2.0°C (36°F)
Dewpoint: -2.0°C (28°F) [RH = 75%]
Pressure (altimeter): 29.50 inches Hg (999.0 mb)
Winds: from the SSW (210 degrees) at 12 MPH (10 knots; 5.1 m/s)
gusting to 22 MPH (19 knots; 9.8 m/s)
Visibility: 6 or more miles (10+ km)
Ceiling: 2600 feet AGL
Clouds: broken clouds at 2600 feet AGL
Weather: no significant weather observed at this time

METAR text: UUWW 181030Z 22006MPS 9999 BKN017 02/M02 Q0999 R24/190042 NOSIG
Conditions at: UUWW (MOSCOW/VNUKOVO , RU) observed 1030 UTC 18 January 2019
Temperature: 2.0°C (36°F)
Dewpoint: -2.0°C (28°F) [RH = 75%]
Pressure (altimeter): 29.50 inches Hg (999.0 mb)
Winds: from the SW (220 degrees) at 14 MPH (12 knots; 6.2 m/s)
Visibility: 6 or more miles (10+ km)
Ceiling: 1700 feet AGL
Clouds: broken clouds at 1700 feet AGL
Weather: no significant weather observed at this time

METAR text: UUWW 181000Z 23006MPS 9999 BKN017 02/M02 Q0999 R24/190042 NOSIG
Conditions at: UUWW (MOSCOW/VNUKOVO , RU) observed 1000 UTC 18 January 2019
Temperature: 2.0°C (36°F)
Dewpoint: -2.0°C (28°F) [RH = 75%]
Pressure (altimeter): 29.50 inches Hg (999.0 mb)
Winds: from the SW (230 degrees) at 14 MPH (12 knots; 6.2 m/s)
Visibility: 6 or more miles (10+ km)
Ceiling: 1700 feet AGL
Clouds: broken clouds at 1700 feet AGL
Weather: no significant weather observed at this time

METAR text: UUWW 180930Z 22005MPS 9999 BKN016 02/M02 Q0999 R24/190042 NOSIG
Conditions at: UUWW (MOSCOW/VNUKOVO , RU) observed 0930 UTC 18 January 2019
Temperature: 2.0°C (36°F)
Dewpoint: -2.0°C (28°F) [RH = 75%]
Pressure (altimeter): 29.50 inches Hg (999.0 mb)
Winds: from the SW (220 degrees) at 12 MPH (10 knots; 5.1 m/s)
Visibility: 6 or more miles (10+ km)
Ceiling: 1600 feet AGL
Clouds: broken clouds at 1600 feet AGL
Weather: no significant weather observed at this time

METAR text: UUWW 180900Z 20007MPS 9999 BKN015 02/M02 Q0999 R19/190040 NOSIG
Conditions at: UUWW (MOSCOW/VNUKOVO , RU) observed 0900 UTC 18 January 2019
Temperature: 2.0°C (36°F)
Dewpoint: -2.0°C (28°F) [RH = 75%]
Pressure (altimeter): 29.50 inches Hg (999.0 mb)
Winds: from the SSW (200 degrees) at 16 MPH (14 knots; 7.2 m/s)
Visibility: 6 or more miles (10+ km)
Ceiling: 1500 feet AGL
Clouds: broken clouds at 1500 feet AGL
Weather: no significant weather observed at this time

METAR text: UUWW 180830Z 20006MPS 9999 OVC015 02/M02 Q0999 R19/000040 NOSIG
Conditions at: UUWW (MOSCOW/VNUKOVO , RU) observed 0830 UTC 18 January 2019
Temperature: 2.0°C (36°F)
Dewpoint: -2.0°C (28°F) [RH = 75%]
Pressure (altimeter): 29.50 inches Hg (999.0 mb)
Winds: from the SSW (200 degrees) at 14 MPH (12 knots; 6.2 m/s)
Visibility: 6 or more miles (10+ km)
Ceiling: 1500 feet AGL
Clouds: overcast cloud deck at 1500 feet AGL
Weather: no significant weather observed at this time

METAR text: UUWW 180800Z 23007MPS 9999 OVC014 01/M02 Q0999 R24/450537 NOSIG
Conditions at: UUWW (MOSCOW/VNUKOVO , RU) observed 0800 UTC 18 January 2019
Temperature: 1.0°C (34°F)
Dewpoint: -2.0°C (28°F) [RH = 80%]
Pressure (altimeter): 29.50 inches Hg (999.0 mb)
Winds: from the SW (230 degrees) at 16 MPH (14 knots; 7.2 m/s)
Visibility: 6 or more miles (10+ km)
Ceiling: 1400 feet AGL
Clouds: overcast cloud deck at 1400 feet AGL
Weather: no significant weather observed at this time

METAR text: UUWW 180730Z 22008MPS 9999 OVC014 01/M02 Q0999 R24/450537 NOSIG
Conditions at: UUWW (MOSCOW/VNUKOVO , RU) observed 0730 UTC 18 January 2019
Temperature: 1.0°C (34°F)
Dewpoint: -2.0°C (28°F) [RH = 80%]
Pressure (altimeter): 29.50 inches Hg (999.0 mb)
Winds: from the SW (220 degrees) at 18 MPH (16 knots; 8.2 m/s)
Visibility: 6 or more miles (10+ km)
Ceiling: 1400 feet AGL
Clouds: overcast cloud deck at 1400 feet AGL
Weather: no significant weather observed at this time

METAR text: UUWW 180700Z 23007MPS 9999 OVC015 01/M02 Q0998 R24/450537 NOSIG
Conditions at: UUWW (MOSCOW/VNUKOVO , RU) observed 0700 UTC 18 January 2019
Temperature: 1.0°C (34°F)
Dewpoint: -2.0°C (28°F) [RH = 80%]
Pressure (altimeter): 29.47 inches Hg (998.0 mb)
Winds: from the SW (230 degrees) at 16 MPH (14 knots; 7.2 m/s)
Visibility: 6 or more miles (10+ km)
Ceiling: 1500 feet AGL
Clouds: overcast cloud deck at 1500 feet AGL
Weather: no significant weather observed at this time

METAR text: UUWW 180630Z 22007MPS 9999 OVC016 01/M02 Q0998 R24/450537 NOSIG
Conditions at: UUWW (MOSCOW/VNUKOVO , RU) observed 0630 UTC 18 January 2019
Temperature: 1.0°C (34°F)
Dewpoint: -2.0°C (28°F) [RH = 80%]
Pressure (altimeter): 29.47 inches Hg (998.0 mb)
Winds: from the SW (220 degrees) at 16 MPH (14 knots; 7.2 m/s)
Visibility: 6 or more miles (10+ km)
Ceiling: 1600 feet AGL
Clouds: overcast cloud deck at 1600 feet AGL
Weather: no significant weather observed at this time

METAR text: UUWW 180600Z 22007G12MPS 9999 OVC015 01/M02 Q0998 R24/450537 NOSIG
Conditions at: UUWW (MOSCOW/VNUKOVO , RU) observed 0600 UTC 18 January 2019
Temperature: 1.0°C (34°F)
Dewpoint: -2.0°C (28°F) [RH = 80%]
Pressure (altimeter): 29.47 inches Hg (998.0 mb)
Winds: from the SW (220 degrees) at 16 MPH (14 knots; 7.2 m/s)
gusting to 26 MPH (23 knots; 11.8 m/s)
Visibility: 6 or more miles (10+ km)
Ceiling: 1500 feet AGL
Clouds: overcast cloud deck at 1500 feet AGL
Weather: no significant weather observed at this time

METAR text: UUWW 180530Z 22007MPS 9999 OVC015 01/M02 Q0997 R24/450537 NOSIG
Conditions at: UUWW (MOSCOW/VNUKOVO , RU) observed 0530 UTC 18 January 2019
Temperature: 1.0°C (34°F)
Dewpoint: -2.0°C (28°F) [RH = 80%]
Pressure (altimeter): 29.44 inches Hg (997.0 mb)
Winds: from the SW (220 degrees) at 16 MPH (14 knots; 7.2 m/s)
Visibility: 6 or more miles (10+ km)
Ceiling: 1500 feet AGL
Clouds: overcast cloud deck at 1500 feet AGL
Weather: no significant weather observed at this time

METAR text: UUWW 180500Z 21007MPS 9999 OVC015 01/M02 Q0997 R24/450537 NOSIG
Conditions at: UUWW (MOSCOW/VNUKOVO , RU) observed 0500 UTC 18 January 2019
Temperature: 1.0°C (34°F)
Dewpoint: -2.0°C (28°F) [RH = 80%]
Pressure (altimeter): 29.44 inches Hg (997.0 mb)
Winds: from the SSW (210 degrees) at 16 MPH (14 knots; 7.2 m/s)
Visibility: 6 or more miles (10+ km)
Ceiling: 1500 feet AGL
Clouds: overcast cloud deck at 1500 feet AGL
Weather: no significant weather observed at this time

METAR text: UUWW 180430Z 23007MPS 9999 SCT010 BKN040 01/M02 Q0997 R24/450537 NOSIG
Conditions at: UUWW (MOSCOW/VNUKOVO , RU) observed 0430 UTC 18 January 2019
Temperature: 1.0°C (34°F)
Dewpoint: -2.0°C (28°F) [RH = 80%]
Pressure (altimeter): 29.44 inches Hg (997.0 mb)
Winds: from the SW (230 degrees) at 16 MPH (14 knots; 7.2 m/s)
Visibility: 6 or more miles (10+ km)
Ceiling: 4000 feet AGL
Clouds: scattered clouds at 1000 feet AGL
broken clouds at 4000 feet AGL
Weather: no significant weather observed at this time

METAR text: UUWW 180400Z 22007MPS 9999 SCT010 BKN040 01/M02 Q0996 R24/450537 NOSIG
Conditions at: UUWW (MOSCOW/VNUKOVO , RU) observed 0400 UTC 18 January 2019
Temperature: 1.0°C (34°F)
Dewpoint: -2.0°C (28°F) [RH = 80%]
Pressure (altimeter): 29.41 inches Hg (996.0 mb)
Winds: from the SW (220 degrees) at 16 MPH (14 knots; 7.2 m/s)
Visibility: 6 or more miles (10+ km)
Ceiling: 4000 feet AGL
Clouds: scattered clouds at 1000 feet AGL
broken clouds at 4000 feet AGL
Weather: no significant weather observed at this time

METAR text: UUWW 180330Z 21006MPS 9999 SCT010 BKN040 01/M02 Q0996 R24/450537 NOSIG
Conditions at: UUWW (MOSCOW/VNUKOVO , RU) observed 0330 UTC 18 January 2019
Temperature: 1.0°C (34°F)
Dewpoint: -2.0°C (28°F) [RH = 80%]
Pressure (altimeter): 29.41 inches Hg (996.0 mb)
Winds: from the SSW (210 degrees) at 14 MPH (12 knots; 6.2 m/s)
Visibility: 6 or more miles (10+ km)
Ceiling: 4000 feet AGL
Clouds: scattered clouds at 1000 feet AGL
broken clouds at 4000 feet AGL
Weather: no significant weather observed at this time

METAR text: UUWW 180300Z 22007MPS 9999 SCT010 BKN030 01/M02 Q0996 R24/450537 NOSIG
Conditions at: UUWW (MOSCOW/VNUKOVO , RU) observed 0300 UTC 18 January 2019
Temperature: 1.0°C (34°F)
Dewpoint: -2.0°C (28°F) [RH = 80%]
Pressure (altimeter): 29.41 inches Hg (996.0 mb)
Winds: from the SW (220 degrees) at 16 MPH (14 knots; 7.2 m/s)
Visibility: 6 or more miles (10+ km)
Ceiling: 3000 feet AGL
Clouds: scattered clouds at 1000 feet AGL
broken clouds at 3000 feet AGL
Weather: no significant weather observed at this time

METAR text: UUWW 180230Z 22006MPS 9999 SCT010 BKN030 01/M02 Q0996 R24/450537 NOSIG
Conditions at: UUWW (MOSCOW/VNUKOVO , RU) observed 0230 UTC 18 January 2019
Temperature: 1.0°C (34°F)
Dewpoint: -2.0°C (28°F) [RH = 80%]
Pressure (altimeter): 29.41 inches Hg (996.0 mb)
Winds: from the SW (220 degrees) at 14 MPH (12 knots; 6.2 m/s)
Visibility: 6 or more miles (10+ km)
Ceiling: 3000 feet AGL
Clouds: scattered clouds at 1000 feet AGL
broken clouds at 3000 feet AGL
Weather: no significant weather observed at this time

Forecast for: UUWW (MOSCOW/VNUKOVO , RU)
Text: TAF UUWW 191050Z 1912/2012 25006MPS 5000 -SN OVC011 TXM04/1912Z TNM08/2006Z
Forecast period: 1200 UTC 19 January 2019 to 1200 UTC 20 January 2019
Forecast type: FROM: standard forecast or significant change
Winds: from the WSW (250 degrees) at 14 MPH (12 knots; 6.2 m/s)
Visibility: 3 miles (5 km)
Ceiling: 1100 feet AGL
Clouds: overcast cloud deck at 1100 feet AGL
Weather: -SN  (light snow)
Text: TEMPO 1912/1920 28008G14MPS 0500 +SHSN BLSN BKN003 BKN015CB
Forecast period: 1200 to 2000 UTC 19 January 2019
Forecast type: TEMPORARY: The following changes expected for less than half the time period
Winds: from the W (280 degrees) at 18 MPH (16 knots; 8.2 m/s)
gusting to 31 MPH (27 knots; 13.9 m/s)
Visibility: 0.31 miles (0.50 km)
Ceiling: 300 feet AGL
Clouds: broken clouds at 300 feet AGL
broken clouds at 1500 feet AGL
Weather: +SHSN BLSN  (heavy snow showers, blowing snow)
Text: TEMPO 1920/2006 BKN004
Forecast period: 2000 UTC 19 January 2019 to 0600 UTC 20 January 2019
Forecast type: TEMPORARY: The following changes expected for less than half the time period
Visibility: missing
Ceiling: 400 feet AGL
Clouds: broken clouds at 400 feet AGL
Weather: no significant weather forecast for this period
Text: TEMPO 2006/2012 23008G14MPS 2100 -SHSN BLSN BKN004 BKN015CB
Forecast period: 0600 to 1200 UTC 20 January 2019
Forecast type: TEMPORARY: The following changes expected for less than half the time period
Winds: from the SW (230 degrees) at 18 MPH (16 knots; 8.2 m/s)
gusting to 31 MPH (27 knots; 13.9 m/s)
Visibility: 1.30 miles (2.09 km)
Ceiling: 400 feet AGL
Clouds: broken clouds at 400 feet AGL
broken clouds at 1500 feet AGL
Weather: -SHSN BLSN  (light snow showers, blowing snow)